sensor_id;sensor_type;location;lat;lon;timestamp;pressure;altitude;pressure_sealevel;temperature;humidity
64895;BME280;51588;53.702;10.208;2022-08-21T00:02:02;101266.06;;;25.90;47.94
64895;BME280;51588;53.702;10.208;2022-08-21T00:04:29;101204.59;;;25.54;47.74
64895;BME280;51588;53.702;10.208;2022-08-21T00:06:56;101259.78;;;25.89;47.96
64895;BME280;51588;53.702;10.208;2022-08-21T00:09:22;101262.28;;;25.91;47.66
64895;BME280;51588;53.702;10.208;2022-08-21T00:11:49;101254.13;;;25.91;47.82
64895;BME280;51588;53.702;10.208;2022-08-21T00:14:17;101253.78;;;25.87;47.85
64895;BME280;51588;53.702;10.208;2022-08-21T00:16:43;101246.41;;;25.88;47.83
64895;BME280;51588;53.702;10.208;2022-08-21T00:19:10;101252.69;;;25.88;47.91
64895;BME280;51588;53.702;10.208;2022-08-21T00:21:37;101247.50;;;25.87;47.41
64895;BME280;51588;53.702;10.208;2022-08-21T00:24:04;101246.66;;;25.86;47.61
64895;BME280;51588;53.702;10.208;2022-08-21T00:26:31;101245.84;;;25.86;47.32
64895;BME280;51588;53.702;10.208;2022-08-21T00:28:58;101243.94;;;25.86;47.66
64895;BME280;51588;53.702;10.208;2022-08-21T00:31:26;101243.94;;;25.86;47.29
64895;BME280;51588;53.702;10.208;2022-08-21T00:33:52;101239.53;;;25.85;47.80
64895;BME280;51588;53.702;10.208;2022-08-21T00:36:19;101234.94;;;25.86;47.71
64895;BME280;51588;53.702;10.208;2022-08-21T00:38:45;101231.59;;;25.84;47.37
64895;BME280;51588;53.702;10.208;2022-08-21T00:41:12;101233.53;;;25.83;47.17
64895;BME280;51588;53.702;10.208;2022-08-21T00:43:39;101234.59;;;25.82;47.54
64895;BME280;51588;53.702;10.208;2022-08-21T00:46:06;101225.81;;;25.80;47.44
64895;BME280;51588;53.702;10.208;2022-08-21T00:48:34;101231.03;;;25.82;47.70
64895;BME280;51588;53.702;10.208;2022-08-21T00:51:06;101237.31;;;25.82;47.56
64895;BME280;51588;53.702;10.208;2022-08-21T00:53:34;101241.34;;;25.80;47.51
64895;BME280;51588;53.702;10.208;2022-08-21T00:56:02;101238.59;;;25.80;47.70
64895;BME280;51588;53.702;10.208;2022-08-21T00:58:30;101223.25;;;25.74;47.49
64895;BME280;51588;53.702;10.208;2022-08-21T01:00:59;101236.72;;;25.80;47.57
64895;BME280;51588;53.702;10.208;2022-08-21T01:03:26;101235.09;;;25.79;47.22
64895;BME280;51588;53.702;10.208;2022-08-21T01:05:54;101232.59;;;25.78;47.63
64895;BME280;51588;53.702;10.208;2022-08-21T01:08:21;101232.03;;;25.76;47.53
64895;BME280;51588;53.702;10.208;2022-08-21T01:10:49;101235.31;;;25.78;47.45
64895;BME280;51588;53.702;10.208;2022-08-21T01:13:17;101233.66;;;25.77;47.20
64895;BME280;51588;53.702;10.208;2022-08-21T01:15:46;101231.19;;;25.75;47.40
64895;BME280;51588;53.702;10.208;2022-08-21T01:18:16;101152.34;;;25.17;47.42
64895;BME280;51588;53.702;10.208;2022-08-21T01:23:17;101240.44;;;25.74;47.33
64895;BME280;51588;53.702;10.208;2022-08-21T01:25:44;101237.69;;;25.74;47.47
64895;BME280;51588;53.702;10.208;2022-08-21T01:28:13;101241.50;;;25.73;47.32
64895;BME280;51588;53.702;10.208;2022-08-21T01:30:42;101249.66;;;25.73;46.98
64895;BME280;51588;53.702;10.208;2022-08-21T01:33:10;101210.38;;;25.46;47.15
64895;BME280;51588;53.702;10.208;2022-08-21T01:35:36;101251.56;;;25.73;47.12
64895;BME280;51588;53.702;10.208;2022-08-21T01:38:03;101254.53;;;25.71;47.29
64895;BME280;51588;53.702;10.208;2022-08-21T01:40:31;101244.72;;;25.70;47.45
64895;BME280;51588;53.702;10.208;2022-08-21T01:42:58;101242.81;;;25.71;47.36
64895;BME280;51588;53.702;10.208;2022-08-21T01:45:24;101234.03;;;25.69;46.91
64895;BME280;51588;53.702;10.208;2022-08-21T01:47:51;101232.13;;;25.69;47.32
64895;BME280;51588;53.702;10.208;2022-08-21T01:50:19;101236.75;;;25.69;47.35
64895;BME280;51588;53.702;10.208;2022-08-21T01:52:46;101226.94;;;25.68;47.01
64895;BME280;51588;53.702;10.208;2022-08-21T01:55:14;101235.94;;;25.68;47.47
64895;BME280;51588;53.702;10.208;2022-08-21T01:57:42;101228.00;;;25.67;47.11
64895;BME280;51588;53.702;10.208;2022-08-21T02:00:12;101230.47;;;25.68;47.42
64895;BME280;51588;53.702;10.208;2022-08-21T02:02:39;101186.03;;;25.39;47.32
64895;BME280;51588;53.702;10.208;2022-08-21T02:05:09;101225.78;;;25.64;46.98
64895;BME280;51588;53.702;10.208;2022-08-21T02:07:37;101230.13;;;25.65;47.06
64895;BME280;51588;53.702;10.208;2022-08-21T02:10:06;101232.06;;;25.64;46.98
64895;BME280;51588;53.702;10.208;2022-08-21T02:12:34;101230.13;;;25.65;47.17
64895;BME280;51588;53.702;10.208;2022-08-21T02:15:03;101233.13;;;25.63;46.92
64895;BME280;51588;53.702;10.208;2022-08-21T02:17:37;101235.03;;;25.63;46.85
64895;BME280;51588;53.702;10.208;2022-08-21T02:20:04;101237.97;;;25.61;47.10
64895;BME280;51588;53.702;10.208;2022-08-21T02:22:31;101236.06;;;25.62;47.03
64895;BME280;51588;53.702;10.208;2022-08-21T02:24:57;101235.25;;;25.61;47.13
64895;BME280;51588;53.702;10.208;2022-08-21T02:27:24;101239.06;;;25.60;46.79
64895;BME280;51588;53.702;10.208;2022-08-21T02:29:51;101235.50;;;25.59;46.88
64895;BME280;51588;53.702;10.208;2022-08-21T02:32:19;101237.13;;;25.60;46.86
64895;BME280;51588;53.702;10.208;2022-08-21T02:34:46;101237.41;;;25.59;47.25
64895;BME280;51588;53.702;10.208;2022-08-21T02:37:14;101233.84;;;25.58;46.99
64895;BME280;51588;53.702;10.208;2022-08-21T02:39:40;101233.00;;;25.58;46.99
64895;BME280;51588;53.702;10.208;2022-08-21T02:42:07;101234.91;;;25.57;47.03
64895;BME280;51588;53.702;10.208;2022-08-21T02:44:33;101224.72;;;25.53;47.36
64895;BME280;51588;53.702;10.208;2022-08-21T02:47:00;101229.47;;;25.57;47.02
64895;BME280;51588;53.702;10.208;2022-08-21T02:49:28;101230.53;;;25.56;46.87
64895;BME280;51588;53.702;10.208;2022-08-21T02:51:54;101225.91;;;25.57;46.36
64895;BME280;51588;53.702;10.208;2022-08-21T02:54:21;101226.16;;;25.55;47.20
64895;BME280;51588;53.702;10.208;2022-08-21T02:56:47;101219.88;;;25.55;47.11
64895;BME280;51588;53.702;10.208;2022-08-21T02:59:14;101222.84;;;25.53;47.15
64895;BME280;51588;53.702;10.208;2022-08-21T03:01:40;101223.44;;;25.55;46.97
64895;BME280;51588;53.702;10.208;2022-08-21T03:04:07;101203.38;;;25.50;46.66
64895;BME280;51588;53.702;10.208;2022-08-21T03:06:35;101211.72;;;25.55;46.66
64895;BME280;51588;53.702;10.208;2022-08-21T03:09:02;101209.47;;;25.52;47.00
64895;BME280;51588;53.702;10.208;2022-08-21T03:11:29;101204.84;;;25.52;46.71
64895;BME280;51588;53.702;10.208;2022-08-21T03:13:55;101210.50;;;25.51;46.77
64895;BME280;51588;53.702;10.208;2022-08-21T03:16:22;101207.78;;;25.51;46.80
64895;BME280;51588;53.702;10.208;2022-08-21T03:18:48;101205.28;;;25.49;47.24
64895;BME280;51588;53.702;10.208;2022-08-21T03:21:15;101210.72;;;25.49;46.80
64895;BME280;51588;53.702;10.208;2022-08-21T03:23:45;101208.00;;;25.49;46.81
64895;BME280;51588;53.702;10.208;2022-08-21T03:26:12;101209.09;;;25.48;46.69
64895;BME280;51588;53.702;10.208;2022-08-21T03:28:38;101211.81;;;25.48;46.69
64895;BME280;51588;53.702;10.208;2022-08-21T03:31:05;101215.34;;;25.49;46.95
64895;BME280;51588;53.702;10.208;2022-08-21T03:33:31;101219.16;;;25.48;46.64
64895;BME280;51588;53.702;10.208;2022-08-21T03:36:01;101221.06;;;25.47;46.54
64895;BME280;51588;53.702;10.208;2022-08-21T03:38:30;101181.44;;;25.28;46.68
64895;BME280;51588;53.702;10.208;2022-08-21T03:40:59;101191.03;;;25.31;46.70
64895;BME280;51588;53.702;10.208;2022-08-21T03:43:26;101193.41;;;25.27;46.65
64895;BME280;51588;53.702;10.208;2022-08-21T03:45:53;101207.44;;;25.47;46.51
64895;BME280;51588;53.702;10.208;2022-08-21T03:48:20;101206.00;;;25.45;46.79
64895;BME280;51588;53.702;10.208;2022-08-21T03:50:47;101207.09;;;25.44;46.89
64895;BME280;51588;53.702;10.208;2022-08-21T03:53:15;101146.94;;;25.05;46.56
64895;BME280;51588;53.702;10.208;2022-08-21T03:55:42;101187.00;;;25.33;46.91
64895;BME280;51588;53.702;10.208;2022-08-21T03:58:10;101210.88;;;25.43;46.77
64895;BME280;51588;53.702;10.208;2022-08-21T04:00:37;101217.38;;;25.42;46.84
64895;BME280;51588;53.702;10.208;2022-08-21T04:03:04;101202.94;;;25.41;46.66
64895;BME280;51588;53.702;10.208;2022-08-21T04:05:31;101199.78;;;25.33;46.69
64895;BME280;51588;53.702;10.208;2022-08-21T04:08:00;101214.09;;;25.40;46.90
64895;BME280;51588;53.702;10.208;2022-08-21T04:10:28;101214.09;;;25.40;46.61
64895;BME280;51588;53.702;10.208;2022-08-21T04:12:56;101220.38;;;25.40;46.59
64895;BME280;51588;53.702;10.208;2022-08-21T04:15:25;101156.88;;;25.00;46.76
64895;BME280;51588;53.702;10.208;2022-08-21T04:17:52;101216.81;;;25.40;46.66
64895;BME280;51588;53.702;10.208;2022-08-21T04:20:20;101217.88;;;25.39;46.82
64895;BME280;51588;53.702;10.208;2022-08-21T04:22:47;101222.75;;;25.37;46.87
64895;BME280;51588;53.702;10.208;2022-08-21T04:25:16;101218.94;;;25.38;46.53
64895;BME280;51588;53.702;10.208;2022-08-21T04:27:44;101223.31;;;25.39;46.65
64895;BME280;51588;53.702;10.208;2022-08-21T04:30:11;101215.03;;;25.34;46.69
64895;BME280;51588;53.702;10.208;2022-08-21T04:32:41;101213.97;;;25.35;46.48
64895;BME280;51588;53.702;10.208;2022-08-21T04:35:10;101224.03;;;25.34;46.84
64895;BME280;51588;53.702;10.208;2022-08-21T04:37:37;101219.69;;;25.33;47.00
64895;BME280;51588;53.702;10.208;2022-08-21T04:40:05;101228.66;;;25.34;46.52
64895;BME280;51588;53.702;10.208;2022-08-21T04:42:32;101227.03;;;25.33;46.46
64895;BME280;51588;53.702;10.208;2022-08-21T04:44:59;101226.75;;;25.34;46.40
64895;BME280;51588;53.702;10.208;2022-08-21T04:47:26;101222.88;;;25.30;46.80
64895;BME280;51588;53.702;10.208;2022-08-21T04:49:54;101230.59;;;25.33;46.88
64895;BME280;51588;53.702;10.208;2022-08-21T04:52:22;101227.84;;;25.33;46.60
64895;BME280;51588;53.702;10.208;2022-08-21T04:54:50;101229.97;;;25.31;46.48
64895;BME280;51588;53.702;10.208;2022-08-21T04:57:18;101229.75;;;25.33;46.97
64895;BME280;51588;53.702;10.208;2022-08-21T04:59:48;101232.69;;;25.31;46.63
64895;BME280;51588;53.702;10.208;2022-08-21T05:02:17;101238.97;;;25.32;46.58
64895;BME280;51588;53.702;10.208;2022-08-21T05:04:48;101242.75;;;25.31;46.64
64895;BME280;51588;53.702;10.208;2022-08-21T05:07:20;101238.97;;;25.32;46.54
64895;BME280;51588;53.702;10.208;2022-08-21T05:09:48;101239.81;;;25.32;46.65
64895;BME280;51588;53.702;10.208;2022-08-21T05:12:15;101240.88;;;25.31;47.09
64895;BME280;51588;53.702;10.208;2022-08-21T05:14:42;101232.84;;;25.25;46.75
64895;BME280;51588;53.702;10.208;2022-08-21T05:17:08;101235.19;;;25.33;46.75
64895;BME280;51588;53.702;10.208;2022-08-21T05:19:35;101123.56;;;24.58;47.01
64895;BME280;51588;53.702;10.208;2022-08-21T05:22:02;101245.50;;;25.31;46.99
64895;BME280;51588;53.702;10.208;2022-08-21T05:24:30;101243.59;;;25.31;47.22
64895;BME280;51588;53.702;10.208;2022-08-21T05:26:57;101238.38;;;25.30;47.11
64895;BME280;51588;53.702;10.208;2022-08-21T05:29:24;101191.34;;;24.94;46.55
64895;BME280;51588;53.702;10.208;2022-08-21T05:31:51;101244.66;;;25.30;47.15
64895;BME280;51588;53.702;10.208;2022-08-21T05:34:19;101243.81;;;25.30;47.09
64895;BME280;51588;53.702;10.208;2022-08-21T05:36:46;101242.75;;;25.31;47.06
64895;BME280;51588;53.702;10.208;2022-08-21T05:39:13;101248.47;;;25.29;46.74
64895;BME280;51588;53.702;10.208;2022-08-21T05:41:40;101252.59;;;25.32;46.91
64895;BME280;51588;53.702;10.208;2022-08-21T05:44:07;101249.88;;;25.32;47.03
64895;BME280;51588;53.702;10.208;2022-08-21T05:46:34;101247.16;;;25.32;47.42
64895;BME280;51588;53.702;10.208;2022-08-21T05:49:00;101244.44;;;25.32;47.24
64895;BME280;51588;53.702;10.208;2022-08-21T05:51:27;101240.88;;;25.31;47.62
64895;BME280;51588;53.702;10.208;2022-08-21T05:53:53;101244.09;;;25.28;47.38
64895;BME280;51588;53.702;10.208;2022-08-21T05:56:20;101238.16;;;25.31;47.15
64895;BME280;51588;53.702;10.208;2022-08-21T05:58:48;101247.16;;;25.32;47.43
64895;BME280;51588;53.702;10.208;2022-08-21T06:01:14;101245.50;;;25.31;47.87
64895;BME280;51588;53.702;10.208;2022-08-21T06:03:41;101238.78;;;25.22;47.63
64895;BME280;51588;53.702;10.208;2022-08-21T06:06:08;101246.31;;;25.31;47.68
64895;BME280;51588;53.702;10.208;2022-08-21T06:08:35;101254.50;;;25.31;47.63
64895;BME280;51588;53.702;10.208;2022-08-21T06:11:04;101245.50;;;25.31;47.82
64895;BME280;51588;53.702;10.208;2022-08-21T06:13:31;101247.38;;;25.30;47.85
64895;BME280;51588;53.702;10.208;2022-08-21T06:16:06;101245.50;;;25.31;47.43
64895;BME280;51588;53.702;10.208;2022-08-21T06:18:33;101237.31;;;25.31;47.93
64895;BME280;51588;53.702;10.208;2022-08-21T06:21:00;101241.72;;;25.32;47.79
64895;BME280;51588;53.702;10.208;2022-08-21T06:23:27;101239.81;;;25.32;47.79
64895;BME280;51588;53.702;10.208;2022-08-21T06:25:53;101238.16;;;25.31;48.03
64895;BME280;51588;53.702;10.208;2022-08-21T06:28:20;101242.53;;;25.32;48.10
64895;BME280;51588;53.702;10.208;2022-08-21T06:30:47;101237.09;;;25.32;48.22
64895;BME280;51588;53.702;10.208;2022-08-21T06:33:15;101239.81;;;25.32;47.98
64895;BME280;51588;53.702;10.208;2022-08-21T06:35:41;101233.75;;;25.30;48.16
64895;BME280;51588;53.702;10.208;2022-08-21T06:38:08;101213.53;;;25.26;48.60
64895;BME280;51588;53.702;10.208;2022-08-21T06:40:35;101241.81;;;25.37;49.10
64895;BME280;51588;53.702;10.208;2022-08-21T06:43:06;101193.78;;;25.07;49.56
64895;BME280;51588;53.702;10.208;2022-08-21T06:45:34;101231.16;;;25.35;50.50
64895;BME280;51588;53.702;10.208;2022-08-21T06:48:00;101230.81;;;25.32;51.01
64895;BME280;51588;53.702;10.208;2022-08-21T06:50:28;101235.66;;;25.30;51.62
64895;BME280;51588;53.702;10.208;2022-08-21T06:52:59;101235.91;;;25.28;51.84
64895;BME280;51588;53.702;10.208;2022-08-21T06:55:26;101232.81;;;25.36;51.74
64895;BME280;51588;53.702;10.208;2022-08-21T06:57:53;101218.50;;;25.29;51.16
64895;BME280;51588;53.702;10.208;2022-08-21T07:00:20;101228.53;;;25.40;51.35
64895;BME280;51588;53.702;10.208;2022-08-21T07:02:47;101226.06;;;25.39;51.41
64895;BME280;51588;53.702;10.208;2022-08-21T07:05:14;101228.78;;;25.39;50.92
64895;BME280;51588;53.702;10.208;2022-08-21T07:07:42;101222.00;;;25.41;51.25
64895;BME280;51588;53.702;10.208;2022-08-21T07:10:09;101220.25;;;25.35;50.64
64895;BME280;51588;53.702;10.208;2022-08-21T07:12:35;101213.84;;;25.41;50.55
64895;BME280;51588;53.702;10.208;2022-08-21T07:15:03;101198.97;;;25.32;50.84
64895;BME280;51588;53.702;10.208;2022-08-21T07:17:30;101218.00;;;25.44;51.02
64895;BME280;51588;53.702;10.208;2022-08-21T07:19:56;101215.28;;;25.44;51.31
64895;BME280;51588;53.702;10.208;2022-08-21T07:22:23;101218.00;;;25.44;50.96
64895;BME280;51588;53.702;10.208;2022-08-21T07:24:51;101218.00;;;25.44;50.44
64895;BME280;51588;53.702;10.208;2022-08-21T07:27:17;101215.84;;;25.46;50.76
64895;BME280;51588;53.702;10.208;2022-08-21T07:29:44;101211.44;;;25.45;50.65
64895;BME280;51588;53.702;10.208;2022-08-21T07:32:12;101210.38;;;25.46;50.41
64895;BME280;51588;53.702;10.208;2022-08-21T07:34:40;101215.84;;;25.46;50.11
64895;BME280;51588;53.702;10.208;2022-08-21T07:37:06;101198.66;;;25.45;50.32
64895;BME280;51588;53.702;10.208;2022-08-21T07:39:33;101198.94;;;25.44;50.26
64895;BME280;51588;53.702;10.208;2022-08-21T07:42:01;101204.13;;;25.45;49.82
64895;BME280;51588;53.702;10.208;2022-08-21T07:44:28;101196.78;;;25.46;49.76
64895;BME280;51588;53.702;10.208;2022-08-21T07:46:55;101197.59;;;25.46;49.84
64895;BME280;51588;53.702;10.208;2022-08-21T07:49:21;101200.09;;;25.48;49.81
64895;BME280;51588;53.702;10.208;2022-08-21T07:51:48;101200.31;;;25.46;50.90
64895;BME280;51588;53.702;10.208;2022-08-21T07:54:15;101194.66;;;25.48;51.79
64895;BME280;51588;53.702;10.208;2022-08-21T07:56:41;101186.22;;;25.49;51.03
64895;BME280;51588;53.702;10.208;2022-08-21T07:59:09;101192.75;;;25.48;51.48
64895;BME280;51588;53.702;10.208;2022-08-21T08:01:36;101186.22;;;25.49;52.19
64895;BME280;51588;53.702;10.208;2022-08-21T08:04:03;101185.97;;;25.51;52.42
64895;BME280;51588;53.702;10.208;2022-08-21T08:06:29;101195.59;;;25.53;53.54
64895;BME280;51588;53.702;10.208;2022-08-21T08:08:56;101187.88;;;25.50;53.89
64895;BME280;51588;53.702;10.208;2022-08-21T08:11:23;101136.34;;;25.21;52.91
64895;BME280;51588;53.702;10.208;2022-08-21T08:13:51;101187.03;;;25.50;52.39
64895;BME280;51588;53.702;10.208;2022-08-21T08:16:19;101182.44;;;25.50;52.28
64895;BME280;51588;53.702;10.208;2022-08-21T08:18:45;101187.41;;;25.53;52.11
64895;BME280;51588;53.702;10.208;2022-08-21T08:21:13;101155.38;;;25.32;52.80
64895;BME280;51588;53.702;10.208;2022-08-21T08:23:39;101188.50;;;25.52;52.72
64895;BME280;51588;53.702;10.208;2022-08-21T08:26:06;101183.84;;;25.53;52.14
64895;BME280;51588;53.702;10.208;2022-08-21T08:28:33;101174.63;;;25.54;52.27
64895;BME280;51588;53.702;10.208;2022-08-21T08:31:00;101124.16;;;25.23;52.53
64895;BME280;51588;53.702;10.208;2022-08-21T08:33:28;101164.19;;;25.51;51.94
64895;BME280;51588;53.702;10.208;2022-08-21T08:35:55;101166.44;;;25.54;52.07
64895;BME280;51588;53.702;10.208;2022-08-21T08:38:24;101174.41;;;25.55;52.12
64895;BME280;51588;53.702;10.208;2022-08-21T08:40:55;101165.03;;;25.51;51.59
64895;BME280;51588;53.702;10.208;2022-08-21T08:43:27;101165.13;;;25.56;51.57
64895;BME280;51588;53.702;10.208;2022-08-21T08:45:56;101169.19;;;25.54;51.13
64895;BME280;51588;53.702;10.208;2022-08-21T08:48:36;101167.38;;;25.59;51.26
64895;BME280;51588;53.702;10.208;2022-08-21T08:51:06;101164.91;;;25.58;51.00
64895;BME280;51588;53.702;10.208;2022-08-21T08:53:38;101159.69;;;25.56;51.14
64895;BME280;51588;53.702;10.208;2022-08-21T08:56:10;101117.00;;;25.34;50.98
64895;BME280;51588;53.702;10.208;2022-08-21T08:58:39;101163.84;;;25.59;50.68
64895;BME280;51588;53.702;10.208;2022-08-21T09:01:12;101161.44;;;25.63;50.40
64895;BME280;51588;53.702;10.208;2022-08-21T09:03:43;101160.63;;;25.62;50.22
64895;BME280;51588;53.702;10.208;2022-08-21T09:06:22;101163.34;;;25.62;50.30
64895;BME280;51588;53.702;10.208;2022-08-21T09:08:59;101156.81;;;25.63;50.71
64895;BME280;51588;53.702;10.208;2022-08-21T09:11:30;101049.31;;;24.97;50.43
64895;BME280;51588;53.702;10.208;2022-08-21T09:14:06;101153.59;;;25.66;50.14
64895;BME280;51588;53.702;10.208;2022-08-21T09:16:41;101150.06;;;25.66;50.18
64895;BME280;51588;53.702;10.208;2022-08-21T09:19:24;101145.59;;;25.59;50.20
64895;BME280;51588;53.702;10.208;2022-08-21T09:22:03;101155.34;;;25.72;50.01
64895;BME280;51588;53.702;10.208;2022-08-21T09:24:49;101154.78;;;25.70;50.14
64895;BME280;51588;53.702;10.208;2022-08-21T09:27:19;101150.16;;;25.71;49.84
64895;BME280;51588;53.702;10.208;2022-08-21T09:29:51;101138.81;;;25.62;49.82
64895;BME280;51588;53.702;10.208;2022-08-21T09:32:20;101152.03;;;25.70;49.79
64895;BME280;51588;53.702;10.208;2022-08-21T09:35:05;101099.44;;;25.41;49.78
64895;BME280;51588;53.702;10.208;2022-08-21T09:37:34;101129.31;;;25.65;49.90
64895;BME280;51588;53.702;10.208;2022-08-21T09:40:02;101148.59;;;25.75;49.54
64895;BME280;51588;53.702;10.208;2022-08-21T09:42:41;101139.59;;;25.74;49.37
64895;BME280;51588;53.702;10.208;2022-08-21T09:45:11;101135.78;;;25.75;49.61
64895;BME280;51588;53.702;10.208;2022-08-21T09:47:39;101107.44;;;25.59;49.27
64895;BME280;51588;53.702;10.208;2022-08-21T09:50:12;101131.97;;;25.76;49.17
64895;BME280;51588;53.702;10.208;2022-08-21T09:52:45;101130.91;;;25.77;49.22
64895;BME280;51588;53.702;10.208;2022-08-21T09:55:16;101132.31;;;25.80;49.20
64895;BME280;51588;53.702;10.208;2022-08-21T09:57:58;101134.47;;;25.78;48.90
64895;BME280;51588;53.702;10.208;2022-08-21T10:00:28;101130.19;;;25.82;48.66
64895;BME280;51588;53.702;10.208;2022-08-21T10:03:07;101123.81;;;25.76;49.04
64895;BME280;51588;53.702;10.208;2022-08-21T10:05:37;101115.47;;;25.66;49.05
64895;BME280;51588;53.702;10.208;2022-08-21T10:08:04;101122.56;;;25.84;48.71
64895;BME280;51588;53.702;10.208;2022-08-21T10:10:32;101123.41;;;25.84;48.67
64895;BME280;51588;53.702;10.208;2022-08-21T10:13:10;101118.44;;;25.81;48.75
64895;BME280;51588;53.702;10.208;2022-08-21T10:15:46;101074.41;;;25.56;48.99
64895;BME280;51588;53.702;10.208;2022-08-21T10:18:20;101113.22;;;25.80;48.89
64895;BME280;51588;53.702;10.208;2022-08-21T10:20:54;101127.78;;;25.85;48.69
64895;BME280;51588;53.702;10.208;2022-08-21T10:23:34;101124.56;;;25.88;48.28
64895;BME280;51588;53.702;10.208;2022-08-21T10:26:09;101123.25;;;25.91;48.10
64895;BME280;51588;53.702;10.208;2022-08-21T10:28:44;101126.00;;;25.91;48.22
64895;BME280;51588;53.702;10.208;2022-08-21T10:31:18;101125.47;;;25.94;48.00
64895;BME280;51588;53.702;10.208;2022-08-21T10:33:54;101114.38;;;25.84;48.09
64895;BME280;51588;53.702;10.208;2022-08-21T10:36:32;101121.84;;;25.88;48.55
64895;BME280;51588;53.702;10.208;2022-08-21T10:39:07;101127.63;;;25.92;48.23
64895;BME280;51588;53.702;10.208;2022-08-21T10:41:50;101132.25;;;25.91;48.47
64895;BME280;51588;53.702;10.208;2022-08-21T10:44:26;101132.84;;;25.93;48.14
64895;BME280;51588;53.702;10.208;2022-08-21T10:47:02;101132.84;;;25.93;48.22
64895;BME280;51588;53.702;10.208;2022-08-21T10:49:38;101124.88;;;25.92;48.44
64895;BME280;51588;53.702;10.208;2022-08-21T10:55:02;101103.09;;;25.75;47.98
64895;BME280;51588;53.702;10.208;2022-08-21T10:57:39;101131.16;;;25.92;48.03
64895;BME280;51588;53.702;10.208;2022-08-21T11:00:09;101134.97;;;25.91;47.98
64895;BME280;51588;53.702;10.208;2022-08-21T11:02:39;101118.53;;;25.86;47.78
64895;BME280;51588;53.702;10.208;2022-08-21T11:05:11;101122.25;;;25.97;47.84
64895;BME280;51588;53.702;10.208;2022-08-21T11:07:46;101129.59;;;25.96;47.82
64895;BME280;51588;53.702;10.208;2022-08-21T11:10:19;101126.66;;;25.98;48.28
64895;BME280;51588;53.702;10.208;2022-08-21T11:12:48;101126.06;;;25.96;48.13
64895;BME280;51588;53.702;10.208;2022-08-21T11:15:26;101102.59;;;25.78;48.20
64895;BME280;51588;53.702;10.208;2022-08-21T11:18:01;101133.16;;;25.97;48.29
64895;BME280;51588;53.702;10.208;2022-08-21T11:20:34;101135.16;;;26.01;47.96
64895;BME280;51588;53.702;10.208;2022-08-21T11:23:07;101138.72;;;26.02;47.96
64895;BME280;51588;53.702;10.208;2022-08-21T11:25:41;101129.19;;;26.04;48.13
64895;BME280;51588;53.702;10.208;2022-08-21T11:28:15;101127.31;;;26.05;47.87
64895;BME280;51588;53.702;10.208;2022-08-21T11:30:54;101134.75;;;26.10;47.72
64895;BME280;51588;53.702;10.208;2022-08-21T11:33:34;101131.94;;;26.04;47.99
64895;BME280;51588;53.702;10.208;2022-08-21T11:36:14;101137.97;;;26.06;47.67
64895;BME280;51588;53.702;10.208;2022-08-21T11:38:46;101131.38;;;26.02;47.10
64895;BME280;51588;53.702;10.208;2022-08-21T11:41:24;101106.81;;;25.86;47.30
64895;BME280;51588;53.702;10.208;2022-08-21T11:43:58;101138.31;;;26.10;47.54
64895;BME280;51588;53.702;10.208;2022-08-21T11:46:31;101133.41;;;26.12;47.47
64895;BME280;51588;53.702;10.208;2022-08-21T11:49:16;101143.50;;;26.12;47.76
64895;BME280;51588;53.702;10.208;2022-08-21T11:51:48;101132.91;;;26.15;47.45
64895;BME280;51588;53.702;10.208;2022-08-21T11:54:24;101127.41;;;26.10;47.55
64895;BME280;51588;53.702;10.208;2022-08-21T11:56:57;101125.72;;;26.09;47.37
64895;BME280;51588;53.702;10.208;2022-08-21T11:59:32;101136.81;;;26.19;47.25
64895;BME280;51588;53.702;10.208;2022-08-21T12:02:07;101133.59;;;26.22;47.13
64895;BME280;51588;53.702;10.208;2022-08-21T12:04:44;101133.13;;;26.25;47.45
64895;BME280;51588;53.702;10.208;2022-08-21T12:07:13;101133.44;;;26.29;47.31
64895;BME280;51588;53.702;10.208;2022-08-21T12:09:52;101132.38;;;26.30;47.19
64895;BME280;51588;53.702;10.208;2022-08-21T12:12:25;101130.78;;;26.34;47.09
64895;BME280;51588;53.702;10.208;2022-08-21T12:15:15;101106.47;;;26.16;47.49
64895;BME280;51588;53.702;10.208;2022-08-21T12:17:53;101026.09;;;25.68;47.33
64895;BME280;51588;53.702;10.208;2022-08-21T12:20:43;101129.19;;;26.38;47.17
64895;BME280;51588;53.702;10.208;2022-08-21T12:23:24;101137.38;;;26.38;47.24
64895;BME280;51588;53.702;10.208;2022-08-21T12:26:03;101133.34;;;26.40;47.07
64895;BME280;51588;53.702;10.208;2022-08-21T12:28:36;101125.16;;;26.40;47.19
64895;BME280;51588;53.702;10.208;2022-08-21T12:31:03;101123.00;;;26.42;47.11
64895;BME280;51588;53.702;10.208;2022-08-21T12:33:32;101120.88;;;26.44;47.22
64895;BME280;51588;53.702;10.208;2022-08-21T12:36:06;101132.34;;;26.46;46.76
64895;BME280;51588;53.702;10.208;2022-08-21T12:38:41;101124.97;;;26.47;46.57
64895;BME280;51588;53.702;10.208;2022-08-21T12:41:17;101124.44;;;26.45;46.72
64895;BME280;51588;53.702;10.208;2022-08-21T12:43:47;101132.94;;;26.48;46.46
64895;BME280;51588;53.702;10.208;2022-08-21T12:46:17;101126.31;;;26.44;46.74
64895;BME280;51588;53.702;10.208;2022-08-21T12:48:48;101129.06;;;26.44;46.60
64895;BME280;51588;53.702;10.208;2022-08-21T12:51:21;101128.78;;;26.46;46.42
64895;BME280;51588;53.702;10.208;2022-08-21T12:53:51;101127.47;;;26.48;45.62
64895;BME280;51588;53.702;10.208;2022-08-21T12:56:21;101016.22;;;25.79;45.43
64895;BME280;51588;53.702;10.208;2022-08-21T12:58:50;101131.84;;;26.49;46.11